OKJRS ESMS-ESNU
Flight info
| Callsign | OKJRS |
|---|---|
| Flight time | 1h 25m |
| Altitude | 27000 |
| Route | NEXIL N851 BEDOS/N0425F450 N851 PELUP DCT RESNA/N0445F270 M607 LENSO |
| Aircraft | C680/M-SDFGHRWY/SB1 |
Departure
| Time | 2026-05-08 08:41 |
|---|---|
| Airport | Malmö Sturup Airport (ESMS) |
Arrival
| Time | 2026-05-08 10:07 |
|---|---|
| Airport | Umeå Airport (ESNU) |
| Time | Latitude | Longitude | Altitude | Speed | Heading |
|---|---|---|---|---|---|
| 2026-05-08 08:00 | 55.53572 | 13.36453 | 225 ft | 0 kts | 195° |
| 2026-05-08 08:33 | 55.53567 | 13.36451 | 225 ft | 3 kts | 190° |
| 2026-05-08 08:33 | 55.53530 | 13.36454 | 225 ft | 8 kts | 173° |
| 2026-05-08 08:34 | 55.53469 | 13.36468 | 225 ft | 7 kts | 172° |
| 2026-05-08 08:34 | 55.53413 | 13.36492 | 226 ft | 7 kts | 122° |
| 2026-05-08 08:34 | 55.53417 | 13.36602 | 225 ft | 11 kts | 84° |
| 2026-05-08 08:34 | 55.53422 | 13.36765 | 225 ft | 15 kts | 83° |
| 2026-05-08 08:35 | 55.53442 | 13.36922 | 225 ft | 15 kts | 76° |
| 2026-05-08 08:35 | 55.53469 | 13.37120 | 225 ft | 18 kts | 76° |
| 2026-05-08 08:35 | 55.53493 | 13.37298 | 227 ft | 10 kts | 73° |
| 2026-05-08 08:35 | 55.53563 | 13.37341 | 225 ft | 15 kts | 353° |
| 2026-05-08 08:36 | 55.53681 | 13.37315 | 225 ft | 20 kts | 353° |
| 2026-05-08 08:36 | 55.53832 | 13.37284 | 225 ft | 24 kts | 353° |
| 2026-05-08 08:36 | 55.53983 | 13.37254 | 225 ft | 22 kts | 353° |
| 2026-05-08 08:36 | 55.54150 | 13.37219 | 226 ft | 26 kts | 353° |
| 2026-05-08 08:37 | 55.54310 | 13.37187 | 225 ft | 25 kts | 353° |
| 2026-05-08 08:37 | 55.54465 | 13.37155 | 226 ft | 18 kts | 354° |
| 2026-05-08 08:37 | 55.54588 | 13.37131 | 225 ft | 18 kts | 354° |
| 2026-05-08 08:37 | 55.54633 | 13.37129 | 225 ft | 3 kts | 13° |
| 2026-05-08 08:38 | 55.54668 | 13.37155 | 225 ft | 8 kts | 28° |
| 2026-05-08 08:38 | 55.54728 | 13.37209 | 225 ft | 5 kts | 26° |
| 2026-05-08 08:38 | 55.54732 | 13.37214 | 225 ft | 0 kts | 26° |
| 2026-05-08 08:39 | 55.54733 | 13.37214 | 225 ft | 1 kts | 26° |
| 2026-05-08 08:39 | 55.54754 | 13.37232 | 229 ft | 6 kts | 25° |
| 2026-05-08 08:39 | 55.54788 | 13.37284 | 229 ft | 7 kts | 67° |
| 2026-05-08 08:40 | 55.54784 | 13.37379 | 228 ft | 7 kts | 140° |
| 2026-05-08 08:40 | 55.54767 | 13.37388 | 228 ft | 3 kts | 172° |
| 2026-05-08 08:40 | 55.54721 | 13.37398 | 228 ft | 13 kts | 173° |
| 2026-05-08 08:40 | 55.54476 | 13.37448 | 228 ft | 61 kts | 173° |
| 2026-05-08 08:41 | 55.53901 | 13.37566 | 237 ft | 101 kts | 173° |
| 2026-05-08 08:41 | 55.53136 | 13.37722 | 392 ft | 119 kts | 170° |
| 2026-05-08 08:41 | 55.52220 | 13.37904 | 749 ft | 148 kts | 168° |
| 2026-05-08 08:41 | 55.51132 | 13.38411 | 1608 ft | 175 kts | 146° |
| 2026-05-08 08:42 | 55.50485 | 13.40154 | 2742 ft | 173 kts | 100° |
| 2026-05-08 08:42 | 55.50698 | 13.42236 | 3882 ft | 178 kts | 62° |
| 2026-05-08 08:42 | 55.51624 | 13.43889 | 4848 ft | 203 kts | 40° |
| 2026-05-08 08:42 | 55.52770 | 13.45391 | 6194 ft | 206 kts | 40° |
| 2026-05-08 08:43 | 55.53525 | 13.46473 | 7179 ft | 209 kts | 43° |
| 2026-05-08 08:43 | 55.54628 | 13.48169 | 8523 ft | 217 kts | 44° |
| 2026-05-08 08:43 | 55.55772 | 13.49927 | 10040 ft | 222 kts | 44° |
| 2026-05-08 08:43 | 55.56974 | 13.51746 | 11376 ft | 230 kts | 44° |
| 2026-05-08 08:44 | 55.58207 | 13.53607 | 12683 ft | 238 kts | 43° |
| 2026-05-08 08:44 | 55.59595 | 13.55345 | 13795 ft | 256 kts | 32° |
| 2026-05-08 08:44 | 55.61236 | 13.56966 | 14486 ft | 284 kts | 31° |
| 2026-05-08 08:44 | 55.63103 | 13.58571 | 15123 ft | 310 kts | 20° |
| 2026-05-08 08:45 | 55.65226 | 13.59338 | 16341 ft | 314 kts | 9° |
| 2026-05-08 08:45 | 55.67414 | 13.59811 | 17489 ft | 320 kts | 8° |
| 2026-05-08 08:45 | 55.69646 | 13.60289 | 18604 ft | 325 kts | 7° |
| 2026-05-08 08:45 | 55.71915 | 13.60787 | 19543 ft | 330 kts | 7° |
| 2026-05-08 08:46 | 55.74204 | 13.61297 | 20492 ft | 334 kts | 8° |
| 2026-05-08 08:46 | 55.76526 | 13.61812 | 21423 ft | 338 kts | 8° |
| 2026-05-08 08:46 | 55.78876 | 13.62315 | 22300 ft | 343 kts | 7° |
| 2026-05-08 08:46 | 55.80965 | 13.62711 | 23056 ft | 346 kts | 7° |
| 2026-05-08 08:47 | 55.83380 | 13.63160 | 23858 ft | 352 kts | 7° |
| 2026-05-08 08:47 | 55.85835 | 13.63650 | 24494 ft | 357 kts | 7° |
| 2026-05-08 08:47 | 55.88315 | 13.64148 | 25166 ft | 360 kts | 8° |
| 2026-05-08 08:47 | 55.90781 | 13.64916 | 25782 ft | 362 kts | 19° |
| 2026-05-08 08:48 | 55.92845 | 13.66523 | 26346 ft | 363 kts | 29° |
| 2026-05-08 08:48 | 55.95009 | 13.68770 | 26950 ft | 366 kts | 33° |
| 2026-05-08 08:48 | 55.97259 | 13.71121 | 27283 ft | 378 kts | 30° |
| 2026-05-08 08:48 | 55.99689 | 13.73224 | 27282 ft | 397 kts | 25° |
| 2026-05-08 08:49 | 56.02282 | 13.75206 | 27283 ft | 413 kts | 25° |
| 2026-05-08 08:49 | 56.04924 | 13.77400 | 27284 ft | 425 kts | 27° |
| 2026-05-08 08:49 | 56.07555 | 13.79783 | 27282 ft | 433 kts | 28° |
| 2026-05-08 08:49 | 56.10285 | 13.82205 | 27281 ft | 432 kts | 27° |
| 2026-05-08 08:50 | 56.12974 | 13.84465 | 27284 ft | 432 kts | 26° |
| 2026-05-08 08:50 | 56.15704 | 13.86764 | 27284 ft | 432 kts | 27° |
| 2026-05-08 08:50 | 56.18399 | 13.89115 | 27284 ft | 430 kts | 27° |
| 2026-05-08 08:50 | 56.21099 | 13.91493 | 27285 ft | 432 kts | 27° |
| 2026-05-08 08:51 | 56.23801 | 13.93831 | 27282 ft | 429 kts | 27° |
| 2026-05-08 08:51 | 56.26495 | 13.96147 | 27282 ft | 431 kts | 27° |
| 2026-05-08 08:51 | 56.29198 | 13.98497 | 27282 ft | 430 kts | 27° |
| 2026-05-08 08:51 | 56.31892 | 14.00858 | 27279 ft | 432 kts | 27° |
| 2026-05-08 08:52 | 56.34606 | 14.03232 | 27284 ft | 434 kts | 27° |
| 2026-05-08 08:52 | 56.37313 | 14.05591 | 27285 ft | 431 kts | 27° |
| 2026-05-08 08:52 | 56.40018 | 14.07953 | 27286 ft | 434 kts | 27° |
| 2026-05-08 08:52 | 56.42722 | 14.10329 | 27287 ft | 431 kts | 27° |
| 2026-05-08 08:53 | 56.45428 | 14.12709 | 27287 ft | 434 kts | 27° |
| 2026-05-08 08:53 | 56.48146 | 14.15100 | 27293 ft | 435 kts | 27° |
| 2026-05-08 08:53 | 56.50851 | 14.17479 | 27284 ft | 429 kts | 27° |
| 2026-05-08 08:53 | 56.53529 | 14.19842 | 27284 ft | 427 kts | 27° |
| 2026-05-08 08:54 | 56.56193 | 14.22200 | 27283 ft | 426 kts | 27° |
| 2026-05-08 08:54 | 56.58848 | 14.24551 | 27284 ft | 424 kts | 28° |
| 2026-05-08 08:54 | 56.61498 | 14.26900 | 27287 ft | 423 kts | 28° |
| 2026-05-08 08:54 | 56.64139 | 14.29245 | 27283 ft | 422 kts | 28° |
| 2026-05-08 08:55 | 56.66774 | 14.31590 | 27292 ft | 421 kts | 28° |
| 2026-05-08 08:55 | 56.69406 | 14.33934 | 27289 ft | 420 kts | 28° |
| 2026-05-08 08:55 | 56.71997 | 14.36246 | 27293 ft | 420 kts | 28° |
| 2026-05-08 08:55 | 56.74620 | 14.38591 | 27288 ft | 419 kts | 28° |
| 2026-05-08 08:56 | 56.77235 | 14.40932 | 27290 ft | 418 kts | 28° |
| 2026-05-08 08:56 | 56.79838 | 14.43265 | 27290 ft | 418 kts | 28° |
| 2026-05-08 08:56 | 56.82457 | 14.45615 | 27289 ft | 417 kts | 28° |
| 2026-05-08 08:56 | 56.85058 | 14.47954 | 27289 ft | 417 kts | 28° |
| 2026-05-08 08:57 | 56.87662 | 14.50301 | 27284 ft | 417 kts | 28° |
| 2026-05-08 08:57 | 56.90262 | 14.52647 | 27283 ft | 417 kts | 28° |
| 2026-05-08 08:57 | 56.92859 | 14.54992 | 27285 ft | 417 kts | 28° |
| 2026-05-08 08:57 | 56.95462 | 14.57347 | 27296 ft | 416 kts | 28° |
| 2026-05-08 08:58 | 56.98055 | 14.59698 | 27296 ft | 416 kts | 28° |
| 2026-05-08 08:58 | 57.00655 | 14.62059 | 27297 ft | 416 kts | 28° |
| 2026-05-08 08:58 | 57.03249 | 14.64417 | 27301 ft | 416 kts | 28° |
| 2026-05-08 08:58 | 57.05843 | 14.66780 | 27295 ft | 416 kts | 28° |
| 2026-05-08 08:59 | 57.08430 | 14.69144 | 27297 ft | 416 kts | 28° |
| 2026-05-08 08:59 | 57.11019 | 14.71506 | 27578 ft | 411 kts | 28° |
| 2026-05-08 08:59 | 57.13497 | 14.73751 | 29205 ft | 383 kts | 28° |
| 2026-05-08 08:59 | 57.15831 | 14.75890 | 30470 ft | 371 kts | 29° |
| 2026-05-08 09:00 | 57.18112 | 14.78001 | 31047 ft | 371 kts | 30° |
| 2026-05-08 09:00 | 57.20418 | 14.80129 | 31596 ft | 370 kts | 29° |
| 2026-05-08 09:00 | 57.22725 | 14.82242 | 32169 ft | 370 kts | 29° |
| 2026-05-08 09:00 | 57.25026 | 14.84357 | 32736 ft | 369 kts | 30° |
| 2026-05-08 09:01 | 57.27321 | 14.86478 | 33288 ft | 368 kts | 30° |
| 2026-05-08 09:01 | 57.29607 | 14.88594 | 33832 ft | 368 kts | 30° |
| 2026-05-08 09:01 | 57.31881 | 14.90696 | 34346 ft | 367 kts | 30° |
| 2026-05-08 09:01 | 57.34184 | 14.92830 | 34685 ft | 370 kts | 29° |
| 2026-05-08 09:02 | 57.36493 | 14.94972 | 35071 ft | 371 kts | 29° |
| 2026-05-08 09:02 | 57.38807 | 14.97121 | 35462 ft | 372 kts | 29° |
| 2026-05-08 09:02 | 57.41124 | 14.99278 | 35844 ft | 374 kts | 28° |
| 2026-05-08 09:02 | 57.43450 | 15.01448 | 36213 ft | 375 kts | 29° |
| 2026-05-08 09:03 | 57.45788 | 15.03634 | 36553 ft | 377 kts | 28° |
| 2026-05-08 09:03 | 57.48135 | 15.05830 | 36943 ft | 378 kts | 28° |
| 2026-05-08 09:03 | 57.50494 | 15.08032 | 37270 ft | 380 kts | 28° |
| 2026-05-08 09:03 | 57.52868 | 15.10253 | 37616 ft | 382 kts | 27° |
| 2026-05-08 09:04 | 57.55236 | 15.12475 | 38023 ft | 382 kts | 27° |
| 2026-05-08 09:04 | 57.57620 | 15.14717 | 38311 ft | 385 kts | 27° |
| 2026-05-08 09:04 | 57.60017 | 15.16974 | 38710 ft | 385 kts | 27° |
| 2026-05-08 09:04 | 57.62406 | 15.19225 | 39058 ft | 386 kts | 27° |
| 2026-05-08 09:05 | 57.64804 | 15.21488 | 39318 ft | 386 kts | 26° |
| 2026-05-08 09:05 | 57.67171 | 15.23726 | 39632 ft | 386 kts | 26° |
| 2026-05-08 09:05 | 57.69571 | 15.26000 | 39888 ft | 387 kts | 26° |
| 2026-05-08 09:05 | 57.71968 | 15.28272 | 40195 ft | 386 kts | 26° |
| 2026-05-08 09:06 | 57.74366 | 15.30551 | 40486 ft | 387 kts | 26° |
| 2026-05-08 09:06 | 57.76770 | 15.32837 | 40748 ft | 387 kts | 26° |
| 2026-05-08 09:06 | 57.79170 | 15.35123 | 41060 ft | 387 kts | 26° |
| 2026-05-08 09:06 | 57.81574 | 15.37417 | 41310 ft | 388 kts | 26° |
| 2026-05-08 09:07 | 57.86487 | 15.42114 | 41322 ft | 405 kts | 26° |
| 2026-05-08 09:07 | 57.91604 | 15.47023 | 41329 ft | 420 kts | 26° |
| 2026-05-08 09:08 | 57.96890 | 15.52111 | 41335 ft | 433 kts | 26° |
| 2026-05-08 09:08 | 58.02325 | 15.57358 | 41336 ft | 445 kts | 26° |
| 2026-05-08 09:09 | 58.07893 | 15.62754 | 41335 ft | 455 kts | 26° |
| 2026-05-08 09:09 | 58.13546 | 15.68252 | 41344 ft | 464 kts | 26° |
| 2026-05-08 09:10 | 58.19332 | 15.73900 | 41345 ft | 472 kts | 26° |
| 2026-05-08 09:10 | 58.25235 | 15.79683 | 41347 ft | 475 kts | 26° |
| 2026-05-08 09:11 | 58.31097 | 15.85447 | 41347 ft | 473 kts | 26° |
| 2026-05-08 09:11 | 58.36874 | 15.91150 | 41328 ft | 470 kts | 26° |
| 2026-05-08 09:12 | 58.42695 | 15.96918 | 41351 ft | 470 kts | 26° |
| 2026-05-08 09:12 | 58.48587 | 16.02312 | 41344 ft | 469 kts | 19° |
| 2026-05-08 09:13 | 58.54779 | 16.06240 | 41344 ft | 469 kts | 18° |
| 2026-05-08 09:13 | 58.60860 | 16.10775 | 41350 ft | 469 kts | 20° |
| 2026-05-08 09:14 | 58.66991 | 16.15064 | 41349 ft | 469 kts | 18° |
| 2026-05-08 09:14 | 58.73099 | 16.19466 | 41349 ft | 469 kts | 20° |
| 2026-05-08 09:15 | 58.79213 | 16.23868 | 41349 ft | 469 kts | 19° |
| 2026-05-08 09:15 | 58.85332 | 16.28272 | 41348 ft | 469 kts | 19° |
| 2026-05-08 09:16 | 58.91441 | 16.32715 | 41351 ft | 469 kts | 19° |
| 2026-05-08 09:16 | 58.97556 | 16.37151 | 41350 ft | 469 kts | 19° |
| 2026-05-08 09:17 | 59.03665 | 16.41624 | 41347 ft | 469 kts | 19° |
| 2026-05-08 09:17 | 59.09779 | 16.46097 | 41348 ft | 469 kts | 19° |
| 2026-05-08 09:18 | 59.15857 | 16.50576 | 41346 ft | 470 kts | 19° |
| 2026-05-08 09:18 | 59.22009 | 16.55116 | 41345 ft | 470 kts | 19° |
| 2026-05-08 09:19 | 59.28078 | 16.59620 | 41346 ft | 470 kts | 19° |
| 2026-05-08 09:19 | 59.34230 | 16.64197 | 41349 ft | 470 kts | 19° |
| 2026-05-08 09:20 | 59.40301 | 16.68736 | 41354 ft | 470 kts | 19° |
| 2026-05-08 09:20 | 59.46409 | 16.73316 | 41348 ft | 470 kts | 19° |
| 2026-05-08 09:21 | 59.52509 | 16.77912 | 41355 ft | 470 kts | 19° |
| 2026-05-08 09:23 | 59.73860 | 16.94132 | 41346 ft | 470 kts | 19° |
| 2026-05-08 09:23 | 59.79960 | 16.98807 | 41342 ft | 470 kts | 19° |
| 2026-05-08 09:24 | 59.86051 | 17.03494 | 41349 ft | 470 kts | 19° |
| 2026-05-08 09:24 | 59.92151 | 17.08206 | 41348 ft | 470 kts | 19° |
| 2026-05-08 09:25 | 59.98248 | 17.12936 | 41345 ft | 470 kts | 18° |
| 2026-05-08 09:25 | 60.04352 | 17.17687 | 41343 ft | 470 kts | 19° |
| 2026-05-08 09:26 | 60.10447 | 17.22453 | 41341 ft | 470 kts | 19° |
| 2026-05-08 09:26 | 60.16533 | 17.27228 | 41340 ft | 470 kts | 19° |
| 2026-05-08 09:27 | 60.22624 | 17.32030 | 41335 ft | 470 kts | 18° |
| 2026-05-08 09:27 | 60.28723 | 17.36853 | 41335 ft | 470 kts | 18° |
| 2026-05-08 09:28 | 60.34771 | 17.41658 | 41336 ft | 470 kts | 18° |
| 2026-05-08 09:28 | 60.40846 | 17.46502 | 41337 ft | 470 kts | 18° |
| 2026-05-08 09:29 | 60.46934 | 17.51378 | 41337 ft | 470 kts | 18° |
| 2026-05-08 09:29 | 60.52028 | 17.55471 | 41338 ft | 470 kts | 18° |
| 2026-05-08 09:30 | 60.58106 | 17.60374 | 41344 ft | 470 kts | 19° |
| 2026-05-08 09:30 | 60.64177 | 17.65292 | 41344 ft | 470 kts | 19° |
| 2026-05-08 09:31 | 60.70203 | 17.70192 | 41341 ft | 470 kts | 19° |
| 2026-05-08 09:31 | 60.76313 | 17.75178 | 41347 ft | 470 kts | 18° |
| 2026-05-08 09:32 | 60.82335 | 17.80120 | 41353 ft | 470 kts | 18° |
| 2026-05-08 09:32 | 60.88412 | 17.85123 | 41358 ft | 470 kts | 18° |
| 2026-05-08 09:33 | 60.94477 | 17.90137 | 41354 ft | 470 kts | 19° |
| 2026-05-08 09:33 | 61.00533 | 17.95165 | 41361 ft | 470 kts | 19° |
| 2026-05-08 09:34 | 61.06601 | 18.00223 | 41363 ft | 470 kts | 18° |
| 2026-05-08 09:34 | 61.12665 | 18.05297 | 41362 ft | 470 kts | 18° |
| 2026-05-08 09:35 | 61.18728 | 18.10394 | 41364 ft | 470 kts | 18° |
| 2026-05-08 09:35 | 61.24781 | 18.15502 | 41364 ft | 470 kts | 18° |
| 2026-05-08 09:36 | 61.30837 | 18.20635 | 41380 ft | 470 kts | 18° |
| 2026-05-08 09:36 | 61.36900 | 18.25794 | 41367 ft | 470 kts | 18° |
| 2026-05-08 09:37 | 61.42954 | 18.30969 | 41367 ft | 470 kts | 18° |
| 2026-05-08 09:37 | 61.49010 | 18.36165 | 41366 ft | 470 kts | 18° |
| 2026-05-08 09:38 | 61.55068 | 18.41387 | 41366 ft | 470 kts | 18° |
| 2026-05-08 09:38 | 61.61121 | 18.46626 | 41367 ft | 471 kts | 18° |
| 2026-05-08 09:39 | 61.67189 | 18.51900 | 41370 ft | 472 kts | 18° |
| 2026-05-08 09:39 | 61.73218 | 18.57163 | 41367 ft | 472 kts | 18° |
| 2026-05-08 09:40 | 61.79281 | 18.62479 | 41367 ft | 472 kts | 18° |
| 2026-05-08 09:40 | 61.85347 | 18.67819 | 41367 ft | 472 kts | 18° |
| 2026-05-08 09:41 | 61.91416 | 18.73185 | 41367 ft | 473 kts | 18° |
| 2026-05-08 09:41 | 61.97489 | 18.78578 | 41367 ft | 473 kts | 18° |
| 2026-05-08 09:42 | 62.03551 | 18.83985 | 41366 ft | 472 kts | 18° |
| 2026-05-08 09:42 | 62.09619 | 18.89420 | 41366 ft | 472 kts | 18° |
| 2026-05-08 09:43 | 62.15707 | 18.94894 | 40770 ft | 480 kts | 18° |
| 2026-05-08 09:43 | 62.18766 | 18.97658 | 40140 ft | 474 kts | 18° |
| 2026-05-08 09:43 | 62.21773 | 19.00390 | 39525 ft | 465 kts | 18° |
| 2026-05-08 09:43 | 62.24723 | 19.03065 | 38892 ft | 456 kts | 18° |
| 2026-05-08 09:44 | 62.27616 | 19.05688 | 38260 ft | 447 kts | 17° |
| 2026-05-08 09:44 | 62.30473 | 19.08284 | 37666 ft | 447 kts | 17° |
| 2026-05-08 09:44 | 62.33353 | 19.10902 | 37085 ft | 452 kts | 17° |
| 2026-05-08 09:44 | 62.36209 | 19.13516 | 36493 ft | 451 kts | 17° |
| 2026-05-08 09:45 | 62.39089 | 19.16167 | 35898 ft | 449 kts | 16° |
| 2026-05-08 09:45 | 62.41958 | 19.18800 | 35330 ft | 447 kts | 15° |
| 2026-05-08 09:45 | 62.44814 | 19.21423 | 34718 ft | 444 kts | 14° |
| 2026-05-08 09:45 | 62.47643 | 19.24031 | 34099 ft | 440 kts | 14° |
| 2026-05-08 09:46 | 62.50459 | 19.26629 | 33507 ft | 442 kts | 14° |
| 2026-05-08 09:46 | 62.53307 | 19.29254 | 32918 ft | 446 kts | 14° |
| 2026-05-08 09:46 | 62.56163 | 19.31909 | 32327 ft | 446 kts | 15° |
| 2026-05-08 09:46 | 62.59009 | 19.34565 | 31740 ft | 445 kts | 15° |
| 2026-05-08 09:47 | 62.61860 | 19.37218 | 31153 ft | 445 kts | 15° |
| 2026-05-08 09:47 | 62.64711 | 19.39870 | 30560 ft | 447 kts | 15° |
| 2026-05-08 09:47 | 62.67563 | 19.42538 | 29929 ft | 447 kts | 15° |
| 2026-05-08 09:47 | 62.70431 | 19.45234 | 29383 ft | 449 kts | 15° |
| 2026-05-08 09:48 | 62.73310 | 19.47937 | 28736 ft | 449 kts | 15° |
| 2026-05-08 09:48 | 62.76152 | 19.50619 | 28150 ft | 441 kts | 15° |
| 2026-05-08 09:48 | 62.78944 | 19.53256 | 27575 ft | 437 kts | 15° |
| 2026-05-08 09:48 | 62.81728 | 19.55878 | 27000 ft | 433 kts | 15° |
| 2026-05-08 09:49 | 62.84482 | 19.58488 | 26432 ft | 428 kts | 15° |
| 2026-05-08 09:49 | 62.87202 | 19.61074 | 25872 ft | 424 kts | 15° |
| 2026-05-08 09:49 | 62.89903 | 19.63640 | 25311 ft | 421 kts | 15° |
| 2026-05-08 09:49 | 62.92586 | 19.66194 | 24758 ft | 418 kts | 16° |
| 2026-05-08 09:50 | 62.95241 | 19.68730 | 24209 ft | 415 kts | 16° |
| 2026-05-08 09:50 | 62.97874 | 19.71251 | 23627 ft | 411 kts | 16° |
| 2026-05-08 09:50 | 63.00477 | 19.73751 | 23078 ft | 404 kts | 16° |
| 2026-05-08 09:50 | 63.03042 | 19.76213 | 22545 ft | 402 kts | 16° |
| 2026-05-08 09:51 | 63.05612 | 19.78622 | 22013 ft | 398 kts | 15° |
| 2026-05-08 09:51 | 63.08181 | 19.80792 | 21493 ft | 394 kts | 14° |
| 2026-05-08 09:51 | 63.10691 | 19.83033 | 20977 ft | 395 kts | 17° |
| 2026-05-08 09:51 | 63.13175 | 19.85623 | 20458 ft | 392 kts | 20° |
| 2026-05-08 09:52 | 63.15664 | 19.88261 | 19936 ft | 390 kts | 19° |
| 2026-05-08 09:52 | 63.18139 | 19.90685 | 19424 ft | 386 kts | 18° |
| 2026-05-08 09:52 | 63.20590 | 19.93027 | 18916 ft | 383 kts | 19° |
| 2026-05-08 09:52 | 63.22991 | 19.95361 | 18386 ft | 379 kts | 17° |
| 2026-05-08 09:53 | 63.25488 | 19.96974 | 17882 ft | 371 kts | 7° |
| 2026-05-08 09:53 | 63.28033 | 19.97633 | 17388 ft | 365 kts | 358° |
| 2026-05-08 09:53 | 63.30550 | 19.97370 | 16912 ft | 360 kts | 349° |
| 2026-05-08 09:53 | 63.33034 | 19.96654 | 16443 ft | 359 kts | 349° |
| 2026-05-08 09:54 | 63.35509 | 19.95971 | 15962 ft | 357 kts | 349° |
| 2026-05-08 09:54 | 63.37969 | 19.95321 | 15493 ft | 354 kts | 349° |
| 2026-05-08 09:54 | 63.40411 | 19.94661 | 15025 ft | 352 kts | 349° |
| 2026-05-08 09:54 | 63.42832 | 19.93987 | 14561 ft | 350 kts | 349° |
| 2026-05-08 09:55 | 63.45244 | 19.93320 | 14092 ft | 349 kts | 349° |
| 2026-05-08 09:55 | 63.47651 | 19.92663 | 13609 ft | 346 kts | 349° |
| 2026-05-08 09:55 | 63.50036 | 19.92009 | 13151 ft | 343 kts | 349° |
| 2026-05-08 09:55 | 63.52346 | 19.91371 | 12707 ft | 326 kts | 349° |
| 2026-05-08 09:56 | 63.54540 | 19.90763 | 12082 ft | 312 kts | 349° |
| 2026-05-08 09:56 | 63.56637 | 19.90183 | 11578 ft | 294 kts | 349° |
| 2026-05-08 09:56 | 63.58607 | 19.89642 | 11192 ft | 278 kts | 349° |
| 2026-05-08 09:56 | 63.60492 | 19.89115 | 10840 ft | 270 kts | 348° |
| 2026-05-08 09:57 | 63.64201 | 19.88074 | 10102 ft | 272 kts | 349° |
| 2026-05-08 09:57 | 63.66084 | 19.87546 | 9732 ft | 272 kts | 349° |
| 2026-05-08 09:57 | 63.67958 | 19.87032 | 9374 ft | 271 kts | 349° |
| 2026-05-08 09:58 | 63.69824 | 19.86517 | 9012 ft | 270 kts | 349° |
| 2026-05-08 09:58 | 63.71692 | 19.85981 | 8654 ft | 269 kts | 349° |
| 2026-05-08 09:58 | 63.73555 | 19.85465 | 8298 ft | 269 kts | 349° |
| 2026-05-08 09:58 | 63.75412 | 19.84942 | 7944 ft | 268 kts | 349° |
| 2026-05-08 09:59 | 63.77263 | 19.84419 | 7587 ft | 267 kts | 349° |
| 2026-05-08 09:59 | 63.79102 | 19.83896 | 7237 ft | 266 kts | 349° |
| 2026-05-08 09:59 | 63.80939 | 19.83390 | 6880 ft | 265 kts | 349° |
| 2026-05-08 09:59 | 63.82771 | 19.82869 | 6522 ft | 266 kts | 349° |
| 2026-05-08 10:00 | 63.84608 | 19.82472 | 6161 ft | 263 kts | 355° |
| 2026-05-08 10:00 | 63.86401 | 19.82976 | 5822 ft | 257 kts | 7° |
| 2026-05-08 10:00 | 63.88116 | 19.83696 | 5493 ft | 250 kts | 6° |
| 2026-05-08 10:00 | 63.89808 | 19.84405 | 5168 ft | 248 kts | 11° |
| 2026-05-08 10:01 | 63.91377 | 19.86104 | 4818 ft | 253 kts | 32° |
| 2026-05-08 10:01 | 63.92633 | 19.88881 | 4478 ft | 251 kts | 53° |
| 2026-05-08 10:01 | 63.93393 | 19.92366 | 4165 ft | 244 kts | 71° |
| 2026-05-08 10:01 | 63.93631 | 19.96134 | 3780 ft | 241 kts | 90° |
| 2026-05-08 10:02 | 63.93241 | 19.99745 | 3438 ft | 232 kts | 120° |
| 2026-05-08 10:02 | 63.92170 | 20.02346 | 3162 ft | 224 kts | 143° |
| 2026-05-08 10:02 | 63.90983 | 20.04532 | 2874 ft | 214 kts | 142° |
| 2026-05-08 10:02 | 63.89898 | 20.06692 | 2618 ft | 204 kts | 140° |
| 2026-05-08 10:03 | 63.88874 | 20.08804 | 2431 ft | 196 kts | 140° |
| 2026-05-08 10:03 | 63.87889 | 20.10902 | 2282 ft | 189 kts | 139° |
| 2026-05-08 10:03 | 63.86969 | 20.12903 | 2063 ft | 175 kts | 140° |
| 2026-05-08 10:03 | 63.86199 | 20.14806 | 1672 ft | 152 kts | 135° |
| 2026-05-08 10:04 | 63.85487 | 20.16177 | 1597 ft | 117 kts | 145° |
| 2026-05-08 10:04 | 63.84899 | 20.17306 | 1448 ft | 108 kts | 147° |
| 2026-05-08 10:04 | 63.84315 | 20.18316 | 1239 ft | 104 kts | 148° |
| 2026-05-08 10:04 | 63.83743 | 20.19305 | 1100 ft | 102 kts | 146° |
| 2026-05-08 10:05 | 63.83201 | 20.20298 | 1010 ft | 101 kts | 146° |
| 2026-05-08 10:05 | 63.82665 | 20.21343 | 859 ft | 102 kts | 141° |
| 2026-05-08 10:05 | 63.82157 | 20.22405 | 700 ft | 97 kts | 143° |
| 2026-05-08 10:05 | 63.81644 | 20.23352 | 557 ft | 96 kts | 141° |
| 2026-05-08 10:06 | 63.81158 | 20.24335 | 423 ft | 91 kts | 140° |
| 2026-05-08 10:06 | 63.80672 | 20.25317 | 290 ft | 96 kts | 141° |
| 2026-05-08 10:06 | 63.80172 | 20.26314 | 166 ft | 94 kts | 141° |
| 2026-05-08 10:06 | 63.79685 | 20.27279 | 41 ft | 92 kts | 139° |
| 2026-05-08 10:07 | 63.79257 | 20.28132 | 23 ft | 71 kts | 138° |
| 2026-05-08 10:07 | 63.79004 | 20.28606 | 22 ft | 11 kts | 147° |
| 2026-05-08 10:07 | 63.79003 | 20.28622 | 21 ft | 1 kts | 54° |
| 2026-05-08 10:07 | 63.79049 | 20.28554 | 22 ft | 17 kts | 317° |
| 2026-05-08 10:08 | 63.79160 | 20.28330 | 21 ft | 24 kts | 317° |
| 2026-05-08 10:08 | 63.79235 | 20.28177 | 22 ft | 0 kts | 339° |
| 2026-05-08 10:08 | 63.79237 | 20.28209 | 21 ft | 7 kts | 127° |
| 2026-05-08 10:08 | 63.79170 | 20.28344 | 21 ft | 16 kts | 140° |
| 2026-05-08 10:09 | 63.79178 | 20.28459 | 22 ft | 14 kts | 49° |
| 2026-05-08 10:09 | 63.79257 | 20.28661 | 21 ft | 20 kts | 50° |
| 2026-05-08 10:09 | 63.79311 | 20.28800 | 21 ft | 0 kts | 47° |